Terminal Aerodrome Forecast
Issued by NWS Charleston, SC

Home | Current Version | Previous Version | Text Only | Print | Product List | Glossary On
Versions: 1 2 3 4 5 6 7 8 9 10 11 12 13 14 15 16 17 18 19 20 21 22 23
000
FTUS42 KCHS 311129
TAFCHS
TAF
KCHS 311129Z 3112/0112 VRB05KT 2SM +RA FEW008 SCT015 OVC020
      TEMPO 3112/3113 3/4SM +RA SCT004 OVC015
     FM311400 18009KT P6SM VCSH SCT015 BKN025
     FM311800 17008KT P6SM SCT025 BKN035
     FM010000 20005KT P6SM SCT015=

USA.gov is the U.S. government's official web portal to all federal, state and local government web resources and services.